Time;durP1;ratioP1;P1;durP2;ratioP2;P2;SDS_P1;SDS_P2;PMS_P1;PMS_P2;Temp;Humidity;BMP_temperature;BMP_pressure;BME280_temperature;BME280_humidity;BME280_pressure;Samples;Min_cycle;Max_cycle;Signal;HPM_P1;HPM_P2
2023/05/26 00:00:15;;;;;;;4.93;4.03;;;11.70;99.90;;;;;;5086987;28;20200;-69
2023/05/26 00:02:43;;;;;;;4.88;3.70;;;11.70;99.90;;;;;;5087915;28;20196;-69
2023/05/26 00:05:10;;;;;;;4.93;3.30;;;11.70;99.90;;;;;;5087504;28;20287;-69
2023/05/26 00:07:39;;;;;;;6.55;4.00;;;11.60;99.90;;;;;;5087802;28;20223;-69
2023/05/26 00:10:07;;;;;;;5.95;4.10;;;11.60;99.90;;;;;;5087722;28;20195;-70
2023/05/26 00:12:35;;;;;;;4.38;3.90;;;11.60;99.90;;;;;;5087898;28;20202;-69
2023/05/26 00:15:02;;;;;;;4.65;3.67;;;11.60;99.90;;;;;;5087175;28;20239;-70
2023/05/26 00:17:29;;;;;;;5.27;3.90;;;11.50;99.90;;;;;;5086977;28;20227;-69
2023/05/26 00:19:59;;;;;;;5.75;4.07;;;11.50;99.90;;;;;;5086763;28;20504;-70
2023/05/26 00:22:26;;;;;;;5.70;4.90;;;11.50;99.90;;;;;;5087161;28;20261;-69
2023/05/26 00:24:53;;;;;;;4.65;4.00;;;11.50;99.90;;;;;;5086843;28;20196;-69
2023/05/26 00:27:20;;;;;;;7.32;4.20;;;11.50;99.90;;;;;;5086966;28;20234;-69
2023/05/26 00:29:48;;;;;;;4.63;3.43;;;11.50;99.90;;;;;;5086363;28;20204;-70
2023/05/26 00:32:16;;;;;;;4.35;3.72;;;11.50;99.90;;;;;;5086805;28;20896;-69
2023/05/26 00:34:43;;;;;;;6.25;3.80;;;11.50;99.90;;;;;;5086630;28;20219;-70
2023/05/26 00:37:10;;;;;;;4.80;3.97;;;11.40;99.90;;;;;;5086907;28;20223;-69
2023/05/26 00:39:36;;;;;;;5.60;4.47;;;11.40;99.90;;;;;;5086430;28;20207;-69
2023/05/26 00:42:03;;;;;;;4.22;3.80;;;11.40;99.90;;;;;;5086731;28;20824;-70
2023/05/26 00:44:30;;;;;;;6.63;4.35;;;11.50;99.90;;;;;;5086594;28;20204;-69
2023/05/26 00:46:58;;;;;;;9.48;3.60;;;11.50;99.90;;;;;;5086362;28;20215;-69
2023/05/26 00:49:25;;;;;;;4.65;3.70;;;11.50;99.90;;;;;;5086000;28;20223;-69
2023/05/26 00:51:53;;;;;;;3.75;3.35;;;11.60;99.90;;;;;;5086386;28;20203;-70
2023/05/26 00:54:21;;;;;;;6.35;4.05;;;11.60;99.90;;;;;;5085978;28;20212;-69
2023/05/26 00:56:48;;;;;;;4.00;3.60;;;11.70;99.90;;;;;;5086163;28;20211;-70
2023/05/26 00:59:15;;;;;;;5.43;4.47;;;11.70;99.90;;;;;;5085593;28;20200;-70
2023/05/26 01:01:42;;;;;;;5.80;4.15;;;11.80;99.90;;;;;;5086191;28;20200;-70
2023/05/26 01:04:10;;;;;;;6.95;5.35;;;11.90;99.90;;;;;;5086374;28;20206;-70
2023/05/26 01:06:37;;;;;;;5.50;4.00;;;11.90;99.90;;;;;;5072822;28;20211;-70
2023/05/26 01:09:05;;;;;;;4.73;4.20;;;12.00;99.90;;;;;;5072039;28;21000;-70
2023/05/26 01:11:35;;;;;;;6.47;4.10;;;12.00;99.90;;;;;;5072332;28;20586;-70
2023/05/26 01:14:08;;;;;;;4.13;3.33;;;12.10;99.90;;;;;;5072176;28;20220;-70
2023/05/26 01:16:46;;;;;;;5.32;3.97;;;12.10;99.90;;;;;;5072297;28;20266;-69
2023/05/26 01:19:42;;;;;;;3.80;3.50;;;12.20;99.90;;;;;;5072080;28;20214;-70
2023/05/26 01:22:20;;;;;;;4.97;4.23;;;12.20;99.90;;;;;;5072567;28;20251;-70
2023/05/26 01:24:55;;;;;;;5.00;3.60;;;12.20;99.90;;;;;;5072286;28;20482;-70
2023/05/26 01:27:32;;;;;;;8.90;3.93;;;12.30;99.90;;;;;;5072070;28;20470;-70
2023/05/26 01:30:00;;;;;;;4.70;3.60;;;12.40;99.90;;;;;;5071673;28;20822;-70
2023/05/26 01:32:28;;;;;;;4.00;3.27;;;12.40;99.90;;;;;;5072185;28;20864;-70
2023/05/26 01:34:54;;;;;;;6.47;4.00;;;12.40;99.90;;;;;;5071907;28;20490;-70
2023/05/26 01:37:21;;;;;;;7.50;4.77;;;12.40;99.90;;;;;;5071951;28;20577;-70
2023/05/26 01:39:48;;;;;;;4.97;3.53;;;12.40;99.90;;;;;;5071546;28;20461;-70
2023/05/26 01:42:23;;;;;;;4.00;3.40;;;12.50;99.90;;;;;;5072193;28;20957;-69
2023/05/26 01:44:55;;;;;;;7.10;2.97;;;12.40;99.90;;;;;;5072054;28;20454;-70
2023/05/26 01:47:25;;;;;;;8.80;4.30;;;12.50;99.90;;;;;;5072115;28;20486;-71
2023/05/26 01:49:52;;;;;;;4.50;3.60;;;12.50;99.90;;;;;;5071383;28;20465;-70
2023/05/26 01:52:20;;;;;;;5.03;3.83;;;12.50;99.90;;;;;;5071690;28;20466;-70
2023/05/26 01:54:50;;;;;;;8.30;4.87;;;12.50;99.90;;;;;;5071602;28;20531;-70
2023/05/26 01:57:17;;;;;;;7.37;4.53;;;12.50;99.90;;;;;;5071513;28;20483;-71
2023/05/26 01:59:44;;;;;;;5.27;3.90;;;12.50;99.90;;;;;;5071097;28;20485;-70
2023/05/26 02:02:10;;;;;;;4.20;3.47;;;12.60;99.90;;;;;;5071778;28;20466;-70
2023/05/26 02:04:38;;;;;;;5.33;3.93;;;12.60;99.90;;;;;;5071386;28;20475;-70
2023/05/26 02:07:07;;;;;;;5.80;4.23;;;12.60;99.90;;;;;;5071971;28;20478;-70
2023/05/26 02:09:33;;;;;;;5.90;4.10;;;12.60;99.90;;;;;;5070977;28;20461;-70
2023/05/26 02:12:00;;;;;;;3.83;3.33;;;12.60;99.90;;;;;;5071588;28;20466;-70
2023/05/26 02:14:27;;;;;;;5.03;3.60;;;12.70;99.90;;;;;;5071128;28;21004;-70
2023/05/26 02:16:54;;;;;;;4.83;4.13;;;12.70;99.90;;;;;;5070153;28;20536;-70
2023/05/26 02:19:22;;;;;;;7.07;3.80;;;12.70;99.90;;;;;;5070634;28;20458;-70
2023/05/26 02:21:50;;;;;;;5.57;3.83;;;12.70;99.90;;;;;;5071033;28;20463;-70
2023/05/26 02:24:17;;;;;;;7.77;4.10;;;12.70;99.90;;;;;;5071090;28;20466;-70
2023/05/26 02:26:44;;;;;;;3.83;3.47;;;12.70;99.90;;;;;;5062581;28;21053;-69
2023/05/26 02:29:11;;;;;;;4.93;3.97;;;12.70;99.90;;;;;;5070709;28;20493;-69
2023/05/26 02:31:39;;;;;;;5.80;4.17;;;12.70;99.90;;;;;;5070652;28;20458;-70
2023/05/26 02:34:06;;;;;;;8.37;5.27;;;12.70;99.90;;;;;;5070778;28;20493;-69
2023/05/26 02:36:33;;;;;;;4.10;3.70;;;12.70;99.90;;;;;;5070832;28;20515;-70
2023/05/26 02:39:01;;;;;;;4.83;3.53;;;12.80;99.90;;;;;;5070306;28;20463;-70
2023/05/26 02:41:28;;;;;;;4.30;3.60;;;12.80;99.90;;;;;;5070449;28;20827;-69
2023/05/26 02:43:55;;;;;;;7.30;4.57;;;12.80;99.90;;;;;;5070588;28;20537;-69
2023/05/26 02:46:21;;;;;;;4.37;3.97;;;12.70;99.90;;;;;;5070437;28;20469;-69
2023/05/26 02:48:48;;;;;;;4.67;3.60;;;12.80;99.90;;;;;;5070073;28;20969;-69
2023/05/26 02:51:15;;;;;;;5.07;4.07;;;12.80;99.90;;;;;;5070765;28;20462;-69
2023/05/26 02:53:41;;;;;;;4.90;4.40;;;12.80;99.90;;;;;;5070489;28;20466;-69
2023/05/26 02:56:10;;;;;;;5.70;4.60;;;12.80;99.90;;;;;;5070983;28;20478;-69
2023/05/26 02:58:36;;;;;;;5.83;3.77;;;12.80;99.90;;;;;;5069834;28;20478;-69
2023/05/26 03:01:03;;;;;;;4.83;3.30;;;12.70;99.90;;;;;;5070362;28;21133;-69
2023/05/26 03:03:30;;;;;;;5.73;3.80;;;12.70;99.90;;;;;;5071347;28;20490;-69
2023/05/26 03:05:58;;;;;;;5.83;3.80;;;12.70;99.90;;;;;;5070433;28;21100;-69
2023/05/26 03:08:25;;;;;;;6.50;4.70;;;12.70;99.90;;;;;;5070342;28;20485;-69
2023/05/26 03:10:52;;;;;;;4.77;3.40;;;12.80;99.90;;;;;;5070579;28;20487;-69
2023/05/26 03:13:20;;;;;;;4.07;3.67;;;12.80;99.90;;;;;;5070364;28;20462;-69
2023/05/26 03:15:47;;;;;;;5.10;4.27;;;12.80;99.90;;;;;;5061768;28;20607;-69
2023/05/26 03:18:14;;;;;;;5.00;3.73;;;12.70;99.90;;;;;;5070231;28;20478;-69
2023/05/26 03:20:41;;;;;;;5.27;3.77;;;12.80;99.90;;;;;;5069636;28;20966;-69
2023/05/26 03:23:08;;;;;;;6.10;3.53;;;12.70;99.90;;;;;;5070431;28;20469;-68
2023/05/26 03:25:35;;;;;;;4.07;3.40;;;12.70;99.90;;;;;;5069805;28;20465;-69
2023/05/26 03:28:02;;;;;;;5.40;4.57;;;12.70;99.90;;;;;;5069628;28;20470;-68
2023/05/26 03:30:30;;;;;;;5.40;4.27;;;12.70;99.90;;;;;;5069774;28;20458;-68
2023/05/26 03:32:57;;;;;;;8.43;3.93;;;12.70;99.90;;;;;;5070334;28;20463;-68
2023/05/26 03:35:23;;;;;;;4.40;3.50;;;12.70;99.90;;;;;;5070196;28;20483;-69
2023/05/26 03:37:50;;;;;;;3.97;3.57;;;12.70;99.90;;;;;;5069991;28;20893;-68
2023/05/26 03:40:17;;;;;;;4.60;4.20;;;12.70;99.90;;;;;;5069567;28;20967;-68
2023/05/26 03:42:44;;;;;;;4.77;4.27;;;12.70;99.90;;;;;;5069653;28;20497;-69
2023/05/26 03:45:12;;;;;;;4.37;3.53;;;12.70;99.90;;;;;;5069822;28;20512;-68
2023/05/26 03:47:40;;;;;;;5.63;4.45;;;12.70;99.90;;;;;;5069174;28;20490;-68
2023/05/26 03:50:08;;;;;;;5.53;4.40;;;12.70;99.90;;;;;;5052152;28;20205;-69
2023/05/26 03:52:35;;;;;;;6.13;4.13;;;12.60;99.90;;;;;;5052617;28;20963;-69
2023/05/26 03:55:03;;;;;;;5.40;4.90;;;12.60;99.90;;;;;;5061606;28;20887;-69
2023/05/26 03:57:30;;;;;;;4.90;3.90;;;12.50;99.90;;;;;;5068905;28;20506;-69
2023/05/26 03:59:56;;;;;;;5.73;4.17;;;12.40;99.90;;;;;;5068622;28;20558;-69
2023/05/26 04:02:23;;;;;;;5.70;3.60;;;12.40;99.90;;;;;;5068256;28;20470;-69
2023/05/26 04:04:51;;;;;;;6.00;5.50;;;12.30;99.90;;;;;;5069277;28;20969;-69
2023/05/26 04:07:18;;;;;;;5.67;3.87;;;12.30;99.90;;;;;;5069841;28;20566;-69
2023/05/26 04:09:45;;;;;;;4.57;3.77;;;12.30;99.90;;;;;;5069212;28;20474;-69
2023/05/26 04:12:11;;;;;;;7.07;4.27;;;12.30;99.90;;;;;;5066432;28;20466;-69
2023/05/26 04:14:38;;;;;;;4.53;4.13;;;12.30;99.90;;;;;;5065687;28;20573;-69
2023/05/26 04:17:05;;;;;;;5.20;4.10;;;12.30;99.90;;;;;;5058368;28;20488;-69
2023/05/26 04:19:32;;;;;;;5.93;4.50;;;12.30;99.90;;;;;;5057109;28;20955;-69
2023/05/26 04:22:00;;;;;;;5.13;4.63;;;12.30;99.90;;;;;;5055239;28;20824;-69
2023/05/26 04:24:27;;;;;;;5.40;4.40;;;12.30;99.90;;;;;;5053532;28;20467;-69
2023/05/26 04:26:54;;;;;;;5.20;4.43;;;12.30;99.90;;;;;;5058449;28;20485;-69
2023/05/26 04:29:21;;;;;;;5.97;4.90;;;12.30;99.90;;;;;;5063821;28;20554;-69
2023/05/26 04:31:48;;;;;;;6.50;4.43;;;12.30;99.90;;;;;;5066770;28;20466;-69
2023/05/26 04:34:14;;;;;;;5.47;4.80;;;12.30;99.90;;;;;;5067384;28;20459;-69
2023/05/26 04:36:41;;;;;;;7.33;4.50;;;12.40;99.90;;;;;;5066826;28;20486;-69
2023/05/26 04:39:10;;;;;;;7.10;5.00;;;12.40;99.90;;;;;;5066612;28;20467;-69
2023/05/26 04:41:38;;;;;;;5.50;4.20;;;12.40;99.90;;;;;;5069745;28;20476;-69
2023/05/26 04:44:05;;;;;;;4.70;4.30;;;12.50;99.90;;;;;;5071390;28;20467;-69
2023/05/26 04:46:32;;;;;;;6.50;4.53;;;12.50;99.90;;;;;;5073021;28;20458;-69
2023/05/26 04:48:58;;;;;;;5.30;4.70;;;12.60;99.90;;;;;;5073051;28;21532;-69
2023/05/26 04:51:25;;;;;;;4.73;3.97;;;12.60;99.90;;;;;;5073820;28;20454;-69
2023/05/26 04:53:52;;;;;;;5.30;4.43;;;12.70;99.90;;;;;;5065709;28;20462;-69
2023/05/26 04:56:21;;;;;;;6.87;4.50;;;12.70;99.90;;;;;;5074497;28;21026;-69
2023/05/26 04:58:48;;;;;;;7.57;4.70;;;12.80;99.90;;;;;;5073719;28;20484;-70
2023/05/26 05:01:16;;;;;;;4.93;4.43;;;12.80;99.90;;;;;;5075208;28;20458;-69
2023/05/26 05:03:43;;;;;;;5.93;4.40;;;12.80;99.90;;;;;;5074436;28;20537;-69
2023/05/26 05:06:10;;;;;;;7.13;4.80;;;12.80;99.90;;;;;;5074862;28;20459;-70
2023/05/26 05:08:37;;;;;;;8.73;4.20;;;12.80;99.90;;;;;;5073975;28;21072;-69
2023/05/26 05:11:04;;;;;;;6.17;4.50;;;12.80;99.90;;;;;;5073851;28;20501;-69
2023/05/26 05:13:33;;;;;;;5.77;4.70;;;12.90;99.90;;;;;;5073979;28;20459;-69
2023/05/26 05:16:00;;;;;;;5.40;4.10;;;12.80;99.90;;;;;;5072990;28;20486;-69
2023/05/26 05:18:27;;;;;;;6.43;4.67;;;12.90;99.90;;;;;;5072892;28;20478;-69
2023/05/26 05:20:53;;;;;;;6.43;4.90;;;13.00;99.90;;;;;;5063753;28;20462;-69
2023/05/26 05:23:20;;;;;;;6.47;4.23;;;13.00;99.90;;;;;;5072880;28;20458;-69
2023/05/26 05:25:47;;;;;;;5.00;4.30;;;13.10;99.90;;;;;;5072123;28;20450;-69
2023/05/26 05:28:13;;;;;;;6.30;4.63;;;13.10;99.90;;;;;;5072564;28;20482;-69
2023/05/26 05:30:41;;;;;;;6.37;4.60;;;13.10;99.90;;;;;;5072162;28;20470;-69
2023/05/26 05:33:08;;;;;;;5.13;4.63;;;13.20;99.90;;;;;;5072585;28;20459;-69
2023/05/26 05:35:35;;;;;;;5.07;4.57;;;13.30;99.90;;;;;;5072137;28;20750;-69
2023/05/26 05:38:02;;;;;;;5.90;4.77;;;13.30;99.90;;;;;;5072149;28;20536;-69
2023/05/26 05:40:28;;;;;;;6.77;4.37;;;13.40;99.90;;;;;;5072152;28;20466;-69
2023/05/26 05:42:55;;;;;;;7.80;5.37;;;13.40;99.90;;;;;;5064265;28;20458;-69
2023/05/26 05:45:22;;;;;;;6.20;4.47;;;13.50;99.90;;;;;;5072333;28;20459;-69
2023/05/26 05:47:50;;;;;;;7.50;5.30;;;13.50;99.90;;;;;;5071834;28;20851;-69
2023/05/26 05:50:16;;;;;;;8.57;4.83;;;13.60;99.90;;;;;;5071827;28;20462;-69
2023/05/26 05:52:43;;;;;;;5.50;4.97;;;13.60;99.90;;;;;;5071589;28;20519;-69
2023/05/26 05:55:10;;;;;;;9.90;5.20;;;13.60;99.90;;;;;;5071997;28;20838;-69
2023/05/26 05:57:37;;;;;;;5.80;4.53;;;13.70;99.90;;;;;;5071742;28;20894;-69
2023/05/26 06:00:05;;;;;;;6.70;5.43;;;13.80;99.90;;;;;;5071487;28;20463;-69
2023/05/26 06:02:32;;;;;;;5.40;4.90;;;13.90;99.90;;;;;;5071789;28;20850;-69
2023/05/26 06:05:00;;;;;;;9.63;4.70;;;13.90;99.90;;;;;;5071935;28;20466;-69
2023/05/26 06:07:26;;;;;;;6.20;4.73;;;14.00;99.90;;;;;;5071912;28;20482;-69
2023/05/26 06:09:53;;;;;;;6.60;4.87;;;14.10;99.90;;;;;;5071011;28;20470;-69
2023/05/26 06:12:20;;;;;;;8.60;5.27;;;14.10;99.90;;;;;;5071732;28;20466;-70
2023/05/26 06:14:46;;;;;;;6.67;4.43;;;14.10;99.90;;;;;;5071391;28;20462;-70
2023/05/26 06:17:13;;;;;;;6.03;4.87;;;14.20;99.90;;;;;;5064955;28;20486;-69
2023/05/26 06:19:40;;;;;;;10.17;5.50;;;14.20;99.90;;;;;;5070414;28;20470;-69
2023/05/26 06:22:08;;;;;;;5.17;4.63;;;14.30;99.90;;;;;;5070542;28;20454;-69
2023/05/26 06:24:37;;;;;;;8.70;5.03;;;14.40;99.90;;;;;;5070151;28;20458;-71
2023/05/26 06:27:04;;;;;;;7.60;4.97;;;14.40;99.90;;;;;;5069593;28;20489;-69
2023/05/26 06:29:31;;;;;;;6.90;4.93;;;14.50;99.90;;;;;;5063717;28;20474;-70
2023/05/26 06:31:58;;;;;;;7.20;5.23;;;14.50;99.90;;;;;;5070431;28;20454;-72
2023/05/26 06:34:25;;;;;;;7.50;5.50;;;14.60;99.90;;;;;;5070270;28;20474;-69
2023/05/26 06:36:52;;;;;;;6.00;4.50;;;14.70;99.90;;;;;;5070084;28;21060;-69
2023/05/26 06:39:20;;;;;;;10.67;5.50;;;14.80;99.90;;;;;;5068581;28;20555;-69
2023/05/26 06:41:47;;;;;;;7.00;4.37;;;14.80;99.90;;;;;;5069604;28;20454;-70
2023/05/26 06:44:15;;;;;;;5.70;5.10;;;14.90;99.90;;;;;;5065551;28;20462;-69
2023/05/26 06:46:45;;;;;;;7.90;4.93;;;14.90;99.90;;;;;;5067665;28;20484;-71
2023/05/26 06:49:12;;;;;;;8.70;5.13;;;15.00;99.90;;;;;;5069109;28;20458;-71
2023/05/26 06:51:38;;;;;;;7.60;4.87;;;15.00;99.90;;;;;;5069888;28;20455;-72
2023/05/26 06:54:06;;;;;;;9.33;5.57;;;15.10;99.90;;;;;;5070202;28;20455;-72
2023/05/26 06:56:34;;;;;;;6.03;5.43;;;15.10;99.90;;;;;;5070345;28;20566;-71
2023/05/26 06:59:01;;;;;;;5.30;4.80;;;15.20;99.90;;;;;;5062286;28;20540;-72
2023/05/26 07:01:28;;;;;;;6.73;5.50;;;15.30;99.90;;;;;;5069546;28;20542;-71
2023/05/26 07:03:54;;;;;;;8.30;5.27;;;15.40;99.90;;;;;;5069814;28;20557;-71
2023/05/26 07:06:21;;;;;;;7.63;5.47;;;15.40;99.90;;;;;;5070392;28;20541;-72
2023/05/26 07:08:48;;;;;;;9.23;5.50;;;15.50;99.90;;;;;;5070065;28;20470;-71
2023/05/26 07:11:15;;;;;;;7.53;4.67;;;15.60;99.90;;;;;;5070642;28;20840;-71
2023/05/26 07:13:43;;;;;;;6.30;4.80;;;15.60;99.90;;;;;;5069869;28;20459;-70
2023/05/26 07:16:10;;;;;;;8.73;5.80;;;15.80;99.90;;;;;;5070310;28;20485;-71
2023/05/26 07:18:36;;;;;;;8.10;5.60;;;15.80;99.90;;;;;;5069572;28;20486;-71
2023/05/26 07:21:03;;;;;;;7.33;4.63;;;15.80;99.90;;;;;;5070023;28;20934;-71
2023/05/26 07:23:30;;;;;;;6.87;5.87;;;15.90;99.90;;;;;;5069760;28;20458;-72
2023/05/26 07:25:57;;;;;;;5.50;5.00;;;16.00;99.90;;;;;;5069850;28;20455;-71
2023/05/26 07:28:24;;;;;;;6.07;4.90;;;16.10;99.90;;;;;;5069843;28;20573;-71
2023/05/26 07:30:52;;;;;;;5.97;4.47;;;16.10;99.90;;;;;;5069705;28;20462;-71
2023/05/26 07:33:19;;;;;;;7.83;5.10;;;16.20;99.90;;;;;;5069999;28;20465;-70
2023/05/26 07:35:45;;;;;;;7.77;4.50;;;16.40;99.90;;;;;;5069965;28;20485;-71
2023/05/26 07:38:12;;;;;;;8.63;5.90;;;16.40;99.90;;;;;;5069514;28;20870;-71
2023/05/26 07:40:39;;;;;;;5.90;5.27;;;16.40;99.90;;;;;;5069611;28;20466;-71
2023/05/26 07:43:11;;;;;;;6.63;5.00;;;16.40;99.90;;;;;;5070019;28;20520;-71
2023/05/26 07:45:38;;;;;;;7.27;4.87;;;16.50;99.90;;;;;;5069258;28;21256;-71
2023/05/26 07:48:07;;;;;;;5.77;4.80;;;16.60;99.90;;;;;;5069746;28;20657;-70
2023/05/26 07:50:33;;;;;;;8.80;5.60;;;16.70;99.90;;;;;;5069089;28;20458;-71
2023/05/26 07:53:00;;;;;;;6.50;5.30;;;16.80;99.90;;;;;;5069946;28;20454;-71
2023/05/26 07:55:27;;;;;;;7.73;5.00;;;16.90;99.90;;;;;;5069963;28;20458;-71
2023/05/26 07:57:54;;;;;;;6.50;5.27;;;17.00;99.90;;;;;;5069851;28;20474;-71
2023/05/26 08:00:21;;;;;;;8.00;5.50;;;17.10;99.90;;;;;;5069386;28;20466;-70
2023/05/26 08:02:47;;;;;;;7.07;5.47;;;17.10;99.90;;;;;;5065969;28;20459;-71
2023/05/26 08:05:15;;;;;;;6.63;4.73;;;17.30;99.90;;;;;;5069822;28;20527;-70
2023/05/26 08:07:42;;;;;;;7.20;4.93;;;17.40;99.90;;;;;;5069782;28;20475;-71
2023/05/26 08:10:09;;;;;;;11.93;4.97;;;17.50;99.90;;;;;;5069809;28;20471;-71
2023/05/26 08:12:36;;;;;;;5.93;4.50;;;17.60;99.90;;;;;;5070370;28;20462;-72
2023/05/26 08:15:04;;;;;;;6.80;4.80;;;17.70;99.90;;;;;;5070671;28;20860;-71
2023/05/26 08:17:30;;;;;;;9.50;4.70;;;17.80;99.90;;;;;;5073835;28;20569;-72
2023/05/26 08:19:57;;;;;;;6.37;5.57;;;17.90;99.90;;;;;;5073472;28;20458;-71
2023/05/26 08:22:25;;;;;;;5.47;4.93;;;18.00;99.90;;;;;;5073681;28;20465;-71
2023/05/26 08:24:53;;;;;;;4.80;3.83;;;18.20;99.90;;;;;;5073920;28;20942;-71
2023/05/26 08:27:20;;;;;;;6.43;5.20;;;18.20;99.90;;;;;;5073752;28;20996;-71
2023/05/26 08:29:46;;;;;;;7.93;5.40;;;18.30;99.90;;;;;;5073192;28;20541;-71
2023/05/26 08:32:13;;;;;;;6.47;4.57;;;18.40;99.90;;;;;;5073245;28;20511;-71
2023/05/26 08:34:42;;;;;;;9.47;5.07;;;18.40;99.90;;;;;;5073166;28;20462;-70
2023/05/26 08:37:11;;;;;;;5.90;5.30;;;18.50;99.90;;;;;;5073768;28;20871;-70
2023/05/26 08:39:39;;;;;;;7.80;5.13;;;18.60;99.90;;;;;;5072346;28;20473;-71
2023/05/26 08:42:07;;;;;;;8.10;5.30;;;18.60;99.90;;;;;;5064893;28;20458;-71
2023/05/26 08:44:35;;;;;;;12.57;4.87;;;18.80;99.90;;;;;;5073348;28;20965;-71
2023/05/26 08:47:04;;;;;;;7.53;5.00;;;18.80;99.90;;;;;;5073418;28;20561;-71
2023/05/26 08:49:36;;;;;;;6.80;5.80;;;18.90;99.90;;;;;;5072950;28;20464;-70
2023/05/26 08:52:08;;;;;;;5.93;5.10;;;18.90;99.90;;;;;;5073290;28;20492;-71
2023/05/26 08:54:35;;;;;;;7.37;4.83;;;19.10;99.90;;;;;;5073442;28;20832;-71
2023/05/26 08:57:05;;;;;;;6.13;5.00;;;19.20;99.90;;;;;;5073122;28;20481;-71
2023/05/26 08:59:32;;;;;;;8.50;5.20;;;19.40;99.90;;;;;;5072813;28;20462;-71
2023/05/26 09:01:59;;;;;;;6.03;5.27;;;19.60;99.90;;;;;;5073200;28;20879;-71
2023/05/26 09:04:27;;;;;;;5.53;4.60;;;19.70;99.90;;;;;;5073298;28;20811;-70
2023/05/26 09:06:54;;;;;;;5.43;4.13;;;19.80;99.90;;;;;;5073248;28;20481;-70
2023/05/26 09:09:21;;;;;;;6.07;4.90;;;20.10;99.90;;;;;;5072648;28;20957;-71
2023/05/26 09:11:47;;;;;;;4.43;4.00;;;20.20;99.90;;;;;;5073009;28;20469;-71
2023/05/26 09:14:17;;;;;;;7.87;4.93;;;20.30;99.90;;;;;;5073339;28;20477;-71
2023/05/26 09:16:44;;;;;;;7.80;4.77;;;20.40;99.90;;;;;;5073246;28;20486;-71
2023/05/26 09:19:14;;;;;;;6.10;5.10;;;20.50;99.90;;;;;;5072990;28;20470;-71
2023/05/26 09:21:46;;;;;;;6.03;5.17;;;20.50;99.90;;;;;;5072887;28;20467;-71
2023/05/26 09:24:15;;;;;;;5.63;4.20;;;20.60;99.90;;;;;;5073081;28;20488;-71
2023/05/26 09:26:44;;;;;;;7.17;4.50;;;20.80;99.90;;;;;;5072351;28;20562;-71
2023/05/26 09:29:11;;;;;;;6.00;4.97;;;20.90;99.90;;;;;;5072599;28;20465;-71
2023/05/26 09:31:40;;;;;;;6.60;4.70;;;20.90;99.90;;;;;;5072645;28;20462;-71
2023/05/26 09:34:07;;;;;;;6.90;5.10;;;21.10;99.90;;;;;;5072907;28;20465;-71
2023/05/26 09:36:34;;;;;;;6.47;4.30;;;21.20;99.90;;;;;;5072474;28;20483;-70
2023/05/26 09:39:02;;;;;;;5.27;4.50;;;21.30;99.90;;;;;;5072160;28;20464;-70
2023/05/26 09:41:36;;;;;;;6.63;5.00;;;21.40;99.90;;;;;;5072450;28;20467;-70
2023/05/26 09:44:11;;;;;;;4.80;4.33;;;21.50;99.90;;;;;;5072461;28;21014;-71
2023/05/26 09:46:40;;;;;;;5.80;4.80;;;21.70;99.90;;;;;;5072177;28;20465;-71
2023/05/26 09:49:14;;;;;;;8.70;5.30;;;21.80;99.90;;;;;;5072136;28;20457;-71
2023/05/26 09:54:09;;;;;;;5.13;4.40;;;22.20;99.90;;;;;;5031135;28;20905;-71
2023/05/26 09:56:46;;;;;;;4.90;3.73;;;22.30;99.90;;;;;;5032022;28;20488;-71
2023/05/26 09:59:16;;;;;;;6.23;4.67;;;22.30;99.90;;;;;;5031752;28;20460;-71
2023/05/26 10:01:45;;;;;;;8.17;5.90;;;22.50;99.90;;;;;;5032153;28;20453;-70
2023/05/26 10:04:14;;;;;;;6.50;3.97;;;22.60;99.90;;;;;;5032224;28;20884;-71
2023/05/26 10:06:42;;;;;;;5.50;4.57;;;22.60;99.90;;;;;;5032641;28;20477;-71
2023/05/26 10:09:09;;;;;;;4.90;4.40;;;22.70;99.90;;;;;;5031232;28;20468;-71
2023/05/26 10:11:40;;;;;;;5.07;4.47;;;22.70;99.90;;;;;;5031918;28;20461;-71
2023/05/26 10:14:07;;;;;;;4.70;4.30;;;22.80;99.90;;;;;;5031953;28;20456;-71
2023/05/26 10:16:34;;;;;;;5.87;4.73;;;22.80;99.90;;;;;;5031540;28;20485;-71
2023/05/26 10:19:03;;;;;;;6.77;5.40;;;22.80;99.90;;;;;;5031242;28;20960;-71
2023/05/26 10:21:35;;;;;;;5.80;4.80;;;22.90;99.90;;;;;;5031720;28;20460;-71
2023/05/26 10:24:09;;;;;;;5.13;4.63;;;22.90;99.90;;;;;;5031767;28;20512;-71
2023/05/26 10:26:44;;;;;;;4.77;4.13;;;22.80;99.90;;;;;;5031707;28;20461;-71
2023/05/26 10:29:17;;;;;;;6.13;4.33;;;22.90;99.90;;;;;;5031398;28;21002;-71
2023/05/26 10:31:44;;;;;;;4.87;4.40;;;23.10;99.90;;;;;;5031684;28;20461;-71
2023/05/26 10:34:35;;;;;;;6.50;4.93;;;23.20;99.90;;;;;;5031517;28;20464;-71
2023/05/26 10:37:02;;;;;;;6.23;4.97;;;23.40;99.90;;;;;;5031531;28;20518;-71
2023/05/26 10:39:29;;;;;;;7.73;5.07;;;23.40;99.90;;;;;;5030630;28;20471;-71
2023/05/26 10:41:56;;;;;;;5.73;4.60;;;23.50;99.90;;;;;;5031541;28;20467;-71
2023/05/26 10:44:41;;;;;;;5.00;4.47;;;23.50;99.90;;;;;;5031275;28;20468;-70
2023/05/26 10:47:13;;;;;;;4.83;4.10;;;23.60;99.90;;;;;;5031227;28;20485;-70
2023/05/26 10:49:42;;;;;;;4.80;4.30;;;23.80;99.90;;;;;;5031131;28;20955;-70
2023/05/26 10:52:11;;;;;;;5.90;4.90;;;24.10;99.90;;;;;;5031135;28;20465;-70
2023/05/26 10:54:38;;;;;;;4.70;4.30;;;24.20;99.90;;;;;;5031188;28;20500;-70
2023/05/26 10:57:06;;;;;;;5.57;4.43;;;24.40;99.90;;;;;;5031129;28;20542;-70
2023/05/26 10:59:35;;;;;;;6.73;4.60;;;24.50;99.90;;;;;;5030482;28;20551;-70
2023/05/26 11:02:03;;;;;;;10.07;5.93;;;24.70;99.90;;;;;;5031142;28;20517;-71
2023/05/26 11:04:42;;;;;;;6.50;4.77;;;24.90;99.90;;;;;;5030950;28;20472;-70
2023/05/26 11:07:16;;;;;;;6.40;4.43;;;24.90;99.90;;;;;;5030943;28;20917;-70
2023/05/26 11:09:57;;;;;;;4.90;4.40;;;25.10;99.90;;;;;;5030555;28;20890;-70
2023/05/26 11:12:24;;;;;;;6.07;5.00;;;25.10;99.90;;;;;;5030880;28;20457;-70
2023/05/26 11:14:50;;;;;;;6.40;4.10;;;24.90;99.90;;;;;;5030729;28;20465;-70
2023/05/26 11:17:19;;;;;;;6.47;5.20;;;25.00;99.90;;;;;;5030585;28;20495;-70
2023/05/26 11:19:55;;;;;;;8.30;4.73;;;25.20;99.90;;;;;;5030543;28;20489;-70
2023/05/26 11:22:22;;;;;;;6.23;4.30;;;25.20;99.90;;;;;;5030797;28;20460;-70
2023/05/26 11:24:51;;;;;;;7.37;5.10;;;25.30;99.90;;;;;;5031370;28;20521;-71
2023/05/26 11:27:18;;;;;;;7.27;4.80;;;25.40;99.40;;;;;;5023422;28;20478;-71
2023/05/26 11:29:47;;;;;;;6.47;5.03;;;25.40;99.90;;;;;;5030471;28;20957;-71
2023/05/26 11:32:14;;;;;;;5.80;5.03;;;25.40;99.90;;;;;;5030516;28;20466;-71
2023/05/26 11:34:40;;;;;;;5.13;4.43;;;25.70;99.90;;;;;;5030682;28;20568;-71
2023/05/26 11:37:10;;;;;;;4.73;4.27;;;26.00;99.90;;;;;;5030075;28;20871;-71
2023/05/26 11:39:38;;;;;;;4.60;4.03;;;26.30;99.00;;;;;;5029804;28;20900;-70
2023/05/26 11:42:10;;;;;;;5.30;4.20;;;26.60;99.60;;;;;;5030762;28;20517;-70
2023/05/26 11:44:37;;;;;;;4.90;3.90;;;26.90;98.90;;;;;;5030122;28;20475;-70
2023/05/26 11:47:05;;;;;;;6.30;4.23;;;27.10;98.80;;;;;;5030238;28;20560;-71
2023/05/26 11:49:32;;;;;;;6.40;5.00;;;27.10;99.90;;;;;;5029674;28;20503;-71
2023/05/26 11:51:58;;;;;;;6.03;4.57;;;27.00;99.20;;;;;;5030104;28;20467;-71
2023/05/26 11:54:26;;;;;;;5.27;4.77;;;27.20;99.50;;;;;;5030228;28;20463;-71
2023/05/26 11:56:53;;;;;;;5.90;4.53;;;27.50;99.10;;;;;;5029943;28;20488;-71
2023/05/26 11:59:21;;;;;;;4.70;4.20;;;27.60;99.30;;;;;;5029480;28;20472;-71
2023/05/26 12:01:49;;;;;;;5.70;4.73;;;27.40;97.60;;;;;;5030301;28;20465;-71
2023/05/26 12:04:15;;;;;;;4.90;3.87;;;27.40;96.70;;;;;;5030005;28;20460;-71
2023/05/26 12:06:44;;;;;;;4.67;4.20;;;27.20;97.20;;;;;;5030114;28;20492;-70
2023/05/26 12:09:19;;;;;;;6.77;3.90;;;27.30;97.60;;;;;;5029440;28;20468;-70
2023/05/26 12:11:48;;;;;;;4.13;3.77;;;27.30;96.90;;;;;;5030074;28;20964;-70
2023/05/26 12:14:15;;;;;;;5.07;3.80;;;27.40;97.40;;;;;;5029552;28;20949;-71
2023/05/26 12:16:43;;;;;;;5.57;4.10;;;27.40;96.00;;;;;;5030141;28;20492;-70
2023/05/26 12:19:12;;;;;;;4.90;4.13;;;27.30;96.90;;;;;;5029215;28;21014;-71
2023/05/26 12:21:40;;;;;;;7.40;5.53;;;27.30;96.40;;;;;;5029690;28;20471;-70
2023/05/26 12:24:07;;;;;;;4.77;3.80;;;27.40;96.90;;;;;;5029780;28;20873;-71
2023/05/26 12:26:34;;;;;;;5.80;4.57;;;27.30;97.20;;;;;;5029735;28;20978;-71
2023/05/26 12:29:10;;;;;;;4.13;3.73;;;27.40;97.70;;;;;;5029154;28;20456;-70
2023/05/26 12:31:38;;;;;;;5.03;4.30;;;27.40;96.30;;;;;;5029772;28;20464;-71
2023/05/26 12:34:05;;;;;;;3.90;3.50;;;27.40;96.80;;;;;;5029808;28;20491;-70
2023/05/26 12:36:32;;;;;;;4.87;3.80;;;27.30;97.50;;;;;;5029698;28;20461;-70
2023/05/26 12:38:59;;;;;;;4.57;4.10;;;27.30;97.30;;;;;;5029139;28;20745;-70
2023/05/26 12:41:26;;;;;;;5.30;3.80;;;27.20;97.20;;;;;;5029794;28;20460;-70
2023/05/26 12:43:52;;;;;;;4.70;3.97;;;27.10;95.30;;;;;;5029819;28;20460;-71
2023/05/26 12:46:20;;;;;;;4.77;4.03;;;26.90;95.50;;;;;;5021750;28;20465;-70
2023/05/26 12:48:47;;;;;;;4.37;3.97;;;26.90;97.40;;;;;;5029534;28;20552;-71
2023/05/26 12:51:16;;;;;;;4.93;3.90;;;26.80;96.20;;;;;;5029592;28;20482;-71